Time;durP1;ratioP1;P1;durP2;ratioP2;P2;SDS_P1;SDS_P2;PMS_P1;PMS_P2;Temp;Humidity;BMP_temperature;BMP_pressure;BME280_temperature;BME280_humidity;BME280_pressure;Samples;Min_cycle;Max_cycle;Signal;HPM_P1;HPM_P2
2022/03/26 00:02:10;;;;;;;37.50;20.05;;;;;;;4.60;64.18;100969.50;4950117;29;20046;-67
2022/03/26 00:04:36;;;;;;;31.90;18.98;;;;;;;4.57;64.33;100967.78;4951850;28;20050;-66
2022/03/26 00:07:01;;;;;;;35.95;18.63;;;;;;;4.56;64.40;100970.41;4953970;29;20035;-66
2022/03/26 00:09:26;;;;;;;34.65;21.75;;;;;;;4.53;64.73;100971.28;4954446;29;20118;-66
2022/03/26 00:11:52;;;;;;;35.35;19.65;;;;;;;4.49;64.61;100970.44;4952970;28;20495;-67
2022/03/26 00:14:17;;;;;;;32.28;19.63;;;;;;;4.45;64.86;100968.69;4954354;28;20380;-67
2022/03/26 00:16:42;;;;;;;36.10;19.55;;;;;;;4.40;65.26;100970.47;4954232;28;20419;-66
2022/03/26 00:19:08;;;;;;;36.58;20.38;;;;;;;4.36;65.56;100974.00;4953896;28;20139;-66
2022/03/26 00:21:33;;;;;;;30.63;20.00;;;;;;;4.30;65.67;100974.00;4953104;28;20043;-66
2022/03/26 00:23:59;;;;;;;40.30;21.17;;;;;;;4.30;65.35;100969.63;4933643;28;20039;-66
2022/03/26 00:26:24;;;;;;;40.72;19.65;;;;;;;4.33;65.36;100971.38;4934546;29;20578;-67
2022/03/26 00:28:49;;;;;;;32.35;20.08;;;;;;;4.29;65.85;100972.28;4934917;29;20099;-65
2022/03/26 00:31:15;;;;;;;34.85;20.92;;;;;;;4.26;65.74;100970.56;4933835;29;20067;-66
2022/03/26 00:33:42;;;;;;;35.40;20.88;;;;;;;4.22;66.28;100976.66;4934537;29;20502;-67
2022/03/26 00:36:08;;;;;;;47.35;20.17;;;;;;;4.15;66.46;100977.53;4934023;29;20505;-67
2022/03/26 00:38:33;;;;;;;28.58;17.95;;;;;;;4.18;65.99;100968.84;4934123;29;20046;-66
2022/03/26 00:40:58;;;;;;;36.60;21.65;;;;;;;4.22;66.00;100971.44;4933734;29;20039;-66
2022/03/26 00:43:24;;;;;;;36.78;20.88;;;;;;;4.15;66.67;100968.84;4916829;29;20048;-66
2022/03/26 00:45:50;;;;;;;32.90;18.65;;;;;;;4.14;66.64;100973.22;4934890;29;20036;-64
2022/03/26 00:48:16;;;;;;;39.72;19.58;;;;;;;4.08;66.89;100974.06;4934589;29;20027;-66
2022/03/26 00:50:41;;;;;;;37.67;19.75;;;;;;;4.08;66.82;100978.44;4933753;29;20042;-66
2022/03/26 00:53:07;;;;;;;32.92;21.45;;;;;;;4.05;67.30;100973.22;4933867;29;20031;-67
2022/03/26 00:55:32;;;;;;;30.60;17.77;;;;;;;3.99;67.44;100968.91;4933887;29;20071;-65
2022/03/26 00:57:58;;;;;;;32.50;19.35;;;;;;;3.99;67.51;100984.56;4934507;29;20042;-65
2022/03/26 01:00:23;;;;;;;35.28;18.55;;;;;;;3.99;67.21;100975.88;4924122;29;20055;-65
2022/03/26 01:02:49;;;;;;;33.30;21.63;;;;;;;3.98;67.40;100980.19;4934049;29;20040;-65
2022/03/26 01:05:14;;;;;;;35.35;20.27;;;;;;;3.96;67.37;100981.94;4934304;29;20040;-65
2022/03/26 01:07:39;;;;;;;42.45;21.13;;;;;;;3.94;67.67;100977.59;4934149;29;20099;-64
2022/03/26 01:10:08;;;;;;;42.70;21.52;;;;;;;3.92;67.31;100985.47;4934184;29;20035;-65
2022/03/26 01:12:34;;;;;;;35.72;18.85;;;;;;;3.88;67.93;100981.97;4933107;29;20044;-66
2022/03/26 01:14:59;;;;;;;37.88;21.92;;;;;;;3.81;68.01;100980.25;4900503;29;20043;-67
2022/03/26 01:17:25;;;;;;;35.58;22.15;;;;;;;3.76;68.76;100976.78;4937083;28;20573;-66
2022/03/26 01:19:51;;;;;;;37.38;21.35;;;;;;;3.76;68.32;100974.16;4946276;28;20069;-65
2022/03/26 01:22:17;;;;;;;35.53;19.70;;;;;;;3.73;68.55;100978.53;4952261;28;20035;-65
2022/03/26 01:24:43;;;;;;;35.28;19.63;;;;;;;3.69;68.84;100972.44;4952874;28;20043;-66
2022/03/26 01:27:08;;;;;;;30.25;18.67;;;;;;;3.69;69.00;100975.06;4952339;28;20035;-66
2022/03/26 01:29:38;;;;;;;33.97;20.50;;;;;;;3.71;68.83;100973.31;4952524;28;20039;-66
2022/03/26 01:32:05;;;;;;;35.90;20.70;;;;;;;3.79;68.97;100966.38;4951226;28;20407;-64
2022/03/26 01:34:31;;;;;;;39.67;23.35;;;;;;;3.77;68.75;100973.31;4952502;29;20054;-66
2022/03/26 01:36:56;;;;;;;35.70;21.23;;;;;;;3.76;68.65;100957.66;4935249;29;20036;-65
2022/03/26 01:39:23;;;;;;;40.03;22.73;;;;;;;3.73;68.81;100955.06;4951952;29;20043;-66
2022/03/26 01:41:48;;;;;;;44.00;24.40;;;;;;;3.66;69.10;100952.47;4952070;28;20042;-65
2022/03/26 01:44:14;;;;;;;31.33;20.60;;;;;;;3.64;69.42;100955.94;4952174;29;20039;-67
2022/03/26 01:46:45;;;;;;;34.92;21.35;;;;;;;3.56;69.54;100948.13;4952140;29;20039;-66
2022/03/26 01:49:11;;;;;;;35.80;19.23;;;;;;;3.53;70.12;100947.28;4952130;29;20050;-68
2022/03/26 01:51:36;;;;;;;35.67;22.13;;;;;;;3.56;69.83;100950.75;4950327;29;20495;-66
2022/03/26 01:54:01;;;;;;;37.70;21.92;;;;;;;3.53;69.81;100949.91;4934668;29;20039;-65
2022/03/26 01:56:27;;;;;;;40.03;21.08;;;;;;;3.49;69.98;100955.97;4951546;29;20407;-67
2022/03/26 01:58:53;;;;;;;39.75;23.48;;;;;;;3.46;69.94;100946.41;4951474;29;20034;-66
2022/03/26 02:01:18;;;;;;;41.80;23.02;;;;;;;3.43;70.18;100951.66;4945823;29;20046;-66
2022/03/26 02:03:43;;;;;;;37.50;21.70;;;;;;;3.47;70.20;100944.69;4951812;29;20050;-66
2022/03/26 02:06:09;;;;;;;36.70;21.30;;;;;;;3.45;70.06;100942.09;4952085;29;20098;-65
2022/03/26 02:08:34;;;;;;;49.83;20.27;;;;;;;3.45;70.15;100939.47;4951839;29;20407;-66
2022/03/26 02:11:01;;;;;;;41.95;21.52;;;;;;;3.46;70.22;100940.34;4951103;29;20151;-66
2022/03/26 02:13:47;;;;;;;37.97;22.58;;;;;;;3.40;70.00;100936.03;4951453;29;20035;-64
2022/03/26 02:16:14;;;;;;;45.97;22.27;;;;;;;3.36;70.78;100942.97;4951551;29;20039;-64
2022/03/26 02:18:40;;;;;;;45.42;20.85;;;;;;;3.32;70.67;100936.00;4952247;29;20405;-67
2022/03/26 02:21:05;;;;;;;40.10;23.05;;;;;;;3.29;71.02;100933.41;4950659;28;20035;-66
2022/03/26 02:23:30;;;;;;;47.45;24.65;;;;;;;3.26;71.07;100932.56;4951562;28;20039;-65
2022/03/26 02:25:56;;;;;;;46.38;24.95;;;;;;;3.22;71.23;100940.38;4950933;28;20039;-64
2022/03/26 02:28:22;;;;;;;37.38;24.48;;;;;;;3.23;71.20;100933.44;4951099;28;20039;-65
2022/03/26 02:30:47;;;;;;;38.83;25.30;;;;;;;3.26;71.32;100928.19;4934100;28;20411;-66
2022/03/26 02:33:13;;;;;;;42.22;22.92;;;;;;;3.28;71.13;100933.44;4951023;28;20046;-66
2022/03/26 02:35:38;;;;;;;47.88;23.90;;;;;;;3.25;70.97;100929.09;4951775;29;20035;-65
2022/03/26 02:38:03;;;;;;;39.83;22.70;;;;;;;3.20;70.97;100925.63;4951441;29;20041;-66
2022/03/26 02:40:29;;;;;;;46.10;23.58;;;;;;;3.19;71.06;100926.47;4941052;29;20091;-65
2022/03/26 02:42:54;;;;;;;39.05;22.02;;;;;;;3.16;71.52;100929.94;4950639;29;20126;-65
2022/03/26 02:45:20;;;;;;;40.63;24.27;;;;;;;3.17;71.52;100931.66;4951867;29;20092;-65
2022/03/26 02:47:48;;;;;;;40.63;23.63;;;;;;;3.17;71.55;100930.81;4952655;29;20038;-65
2022/03/26 02:50:13;;;;;;;43.03;26.10;;;;;;;3.20;71.58;100929.09;4951871;29;20031;-66
2022/03/26 02:52:39;;;;;;;42.20;24.77;;;;;;;3.20;71.69;100928.22;4951381;29;20037;-65
2022/03/26 02:55:07;;;;;;;37.05;23.48;;;;;;;3.17;71.62;100928.19;4951697;29;20644;-65
2022/03/26 02:57:32;;;;;;;40.38;24.92;;;;;;;3.14;71.73;100923.88;4951965;29;20054;-65
2022/03/26 02:59:58;;;;;;;46.33;26.40;;;;;;;3.10;71.72;100927.34;4952143;29;20054;-66
2022/03/26 03:02:23;;;;;;;45.13;27.45;;;;;;;3.07;72.27;100934.28;4952105;29;20057;-64
2022/03/26 03:04:48;;;;;;;43.83;26.13;;;;;;;3.03;72.30;100933.44;4952909;29;20028;-65
2022/03/26 03:07:14;;;;;;;40.70;26.33;;;;;;;2.98;72.21;100932.56;4953197;29;20090;-65
2022/03/26 03:09:39;;;;;;;45.28;27.98;;;;;;;3.01;72.25;100933.44;4959333;29;20045;-66
2022/03/26 03:12:06;;;;;;;47.25;27.15;;;;;;;2.98;72.54;100933.44;4960926;29;20062;-66
2022/03/26 03:14:32;;;;;;;44.00;25.92;;;;;;;2.97;72.58;100934.28;4961620;29;20042;-66
2022/03/26 03:16:57;;;;;;;45.75;26.73;;;;;;;2.96;72.55;100937.75;4959485;29;20035;-65
2022/03/26 03:19:22;;;;;;;47.95;25.02;;;;;;;2.96;72.81;100945.59;4953766;29;20090;-66
2022/03/26 03:21:48;;;;;;;44.17;26.85;;;;;;;2.94;72.59;100944.72;4935254;29;20037;-70
2022/03/26 03:24:13;;;;;;;43.10;26.50;;;;;;;2.90;72.97;100944.69;4952931;29;20038;-66
2022/03/26 03:26:38;;;;;;;45.65;25.17;;;;;;;2.90;72.81;100944.69;4952172;29;20039;-66
2022/03/26 03:29:04;;;;;;;41.75;24.20;;;;;;;2.89;72.99;100954.25;4954031;29;20031;-65
2022/03/26 03:31:29;;;;;;;50.67;25.52;;;;;;;2.90;73.19;100952.50;4952511;29;20035;-66
2022/03/26 03:33:55;;;;;;;42.78;25.10;;;;;;;2.85;72.77;100962.91;4953725;29;20046;-67
2022/03/26 03:36:20;;;;;;;40.63;25.63;;;;;;;2.83;73.24;100962.06;4953773;29;20522;-67
2022/03/26 03:38:46;;;;;;;57.55;26.73;;;;;;;2.83;73.11;100955.97;4954323;28;20738;-65
2022/03/26 03:41:11;;;;;;;43.85;26.05;;;;;;;2.86;73.07;100958.59;4958684;29;20097;-66
2022/03/26 03:43:36;;;;;;;48.30;27.58;;;;;;;2.82;72.93;100957.72;4960330;28;20094;-66
2022/03/26 03:46:02;;;;;;;38.60;23.90;;;;;;;2.74;73.02;100957.72;4958413;29;20043;-66
2022/03/26 03:48:28;;;;;;;44.20;26.27;;;;;;;2.70;73.39;100960.31;4959980;29;20122;-67
2022/03/26 03:50:53;;;;;;;48.00;27.00;;;;;;;2.65;73.27;100957.69;4946030;29;20120;-66
2022/03/26 03:53:19;;;;;;;48.95;26.42;;;;;;;2.63;73.30;100959.41;4957733;29;20043;-65
2022/03/26 03:55:44;;;;;;;43.92;26.42;;;;;;;2.61;73.56;100965.47;4956215;29;20047;-65
2022/03/26 03:58:09;;;;;;;40.65;24.55;;;;;;;2.66;73.61;100963.75;4958289;29;20128;-66
2022/03/26 04:00:35;;;;;;;38.28;24.30;;;;;;;2.68;73.70;100964.63;4957751;29;20055;-65
2022/03/26 04:03:00;;;;;;;49.65;28.80;;;;;;;2.65;73.63;100964.63;4957243;29;20078;-66
2022/03/26 04:05:26;;;;;;;47.25;26.83;;;;;;;2.65;73.76;100962.88;4956951;29;20133;-67
2022/03/26 04:07:51;;;;;;;45.20;27.90;;;;;;;2.65;73.66;100964.63;4957055;29;20070;-64
2022/03/26 04:10:17;;;;;;;40.67;24.95;;;;;;;2.61;73.39;100966.38;4956153;29;20039;-65
2022/03/26 04:12:44;;;;;;;44.75;26.05;;;;;;;2.60;74.12;100964.63;4954397;29;20070;-66
2022/03/26 04:15:11;;;;;;;47.72;28.33;;;;;;;2.57;73.84;100967.22;4954782;29;20090;-66
2022/03/26 04:17:37;;;;;;;53.33;27.45;;;;;;;2.54;73.97;100973.28;4954420;29;20043;-66
2022/03/26 04:20:06;;;;;;;39.28;24.98;;;;;;;2.57;73.87;100977.63;4954766;29;20110;-63
2022/03/26 04:22:31;;;;;;;56.72;28.02;;;;;;;2.58;74.03;100975.03;4960471;29;20110;-66
2022/03/26 04:24:57;;;;;;;45.50;26.88;;;;;;;2.62;73.87;100973.31;4956175;29;20066;-66
2022/03/26 04:27:22;;;;;;;50.28;27.45;;;;;;;2.63;74.21;100981.97;4939269;29;20122;-66
2022/03/26 04:29:48;;;;;;;52.08;28.48;;;;;;;2.61;74.07;100978.50;4955106;28;20432;-65
2022/03/26 04:32:13;;;;;;;47.08;28.15;;;;;;;2.52;73.79;100975.00;4955636;28;20039;-66
2022/03/26 04:34:39;;;;;;;50.78;27.63;;;;;;;2.43;74.04;100974.13;4960082;28;20510;-66
2022/03/26 04:37:05;;;;;;;47.13;26.90;;;;;;;2.39;74.28;100975.84;4942273;28;20050;-67
2022/03/26 04:39:31;;;;;;;52.22;28.33;;;;;;;2.36;74.42;100968.91;4957987;28;20054;-66
2022/03/26 04:41:57;;;;;;;48.15;26.98;;;;;;;2.33;74.89;100974.06;4954390;28;20043;-67
2022/03/26 04:44:22;;;;;;;48.33;30.67;;;;;;;2.33;74.88;100974.06;4955370;28;20039;-65
2022/03/26 04:46:47;;;;;;;46.38;27.08;;;;;;;2.36;74.78;100976.72;4955918;28;20074;-66
2022/03/26 04:49:13;;;;;;;45.13;26.30;;;;;;;2.39;74.61;100973.25;4954476;28;20035;-65
2022/03/26 04:51:38;;;;;;;45.00;25.73;;;;;;;2.40;74.27;100974.97;4953792;28;20046;-65
2022/03/26 04:54:03;;;;;;;49.20;29.25;;;;;;;2.40;74.37;100969.78;4953478;28;20492;-66
2022/03/26 04:56:29;;;;;;;49.03;25.33;;;;;;;2.40;74.18;100974.97;4936629;28;20051;-65
2022/03/26 04:58:55;;;;;;;45.17;25.90;;;;;;;2.38;74.24;100974.09;4954324;28;20039;-66
2022/03/26 05:01:22;;;;;;;47.03;28.42;;;;;;;2.33;74.47;100976.69;4953289;28;20431;-65
2022/03/26 05:03:48;;;;;;;48.60;28.95;;;;;;;2.27;74.75;100981.88;4953871;28;20446;-66
2022/03/26 05:06:13;;;;;;;50.08;29.88;;;;;;;2.23;75.33;100980.09;4953283;28;20034;-66
2022/03/26 05:08:38;;;;;;;44.47;26.05;;;;;;;2.23;75.15;100982.72;4936452;29;20090;-66
2022/03/26 05:11:05;;;;;;;45.45;29.33;;;;;;;2.28;75.31;100982.72;4952590;28;20406;-67
2022/03/26 05:13:30;;;;;;;44.83;26.42;;;;;;;2.30;75.24;100981.00;4952057;28;20043;-66
2022/03/26 05:15:55;;;;;;;47.05;25.50;;;;;;;2.31;75.20;100981.03;4953304;28;20046;-64
2022/03/26 05:18:21;;;;;;;44.53;26.58;;;;;;;2.32;74.82;100977.56;4953270;28;20046;-63
2022/03/26 05:20:46;;;;;;;43.13;24.88;;;;;;;2.31;74.69;100987.94;4952874;28;20086;-66
2022/03/26 05:23:11;;;;;;;42.60;25.75;;;;;;;2.31;74.85;100980.13;4952180;28;20042;-64
2022/03/26 05:25:37;;;;;;;46.65;28.55;;;;;;;2.30;74.83;100986.22;4953222;28;20043;-64
2022/03/26 05:28:03;;;;;;;49.25;28.48;;;;;;;2.29;75.16;100987.06;4952861;28;20050;-66
2022/03/26 05:30:28;;;;;;;54.80;29.30;;;;;;;2.29;75.20;100985.34;4952158;28;20043;-66
2022/03/26 05:32:54;;;;;;;46.40;28.55;;;;;;;2.29;75.05;100987.97;4951919;29;20062;-66
2022/03/26 05:35:19;;;;;;;46.70;28.33;;;;;;;2.31;74.65;100986.25;4919912;29;20459;-66
2022/03/26 05:37:46;;;;;;;51.42;27.90;;;;;;;2.32;74.93;100990.56;4952527;29;20043;-67
2022/03/26 05:40:14;;;;;;;46.10;27.75;;;;;;;2.30;74.87;100979.28;4952400;29;20035;-66
2022/03/26 05:42:40;;;;;;;46.55;25.85;;;;;;;2.31;75.03;100998.34;4952414;29;20047;-66
2022/03/26 05:45:06;;;;;;;50.25;27.40;;;;;;;2.32;75.24;100998.38;4952523;29;20038;-67
2022/03/26 05:47:33;;;;;;;60.72;28.67;;;;;;;2.33;74.84;100992.28;4952534;29;20101;-66
2022/03/26 05:49:59;;;;;;;49.10;27.60;;;;;;;2.34;74.77;100995.78;4935470;29;20042;-67
2022/03/26 05:52:25;;;;;;;52.90;28.02;;;;;;;2.39;75.00;101000.97;4951865;29;20039;-65
2022/03/26 05:54:50;;;;;;;44.47;25.55;;;;;;;2.40;74.69;101005.34;4955240;29;20142;-65
2022/03/26 05:57:16;;;;;;;54.78;29.42;;;;;;;2.45;74.22;101006.22;4967206;29;20035;-67
2022/03/26 05:59:41;;;;;;;44.15;28.40;;;;;;;2.46;74.65;101005.34;4942762;29;20394;-66
2022/03/26 06:02:10;;;;;;;48.75;28.70;;;;;;;2.49;74.03;101006.25;4954519;28;20042;-66
2022/03/26 06:04:36;;;;;;;49.08;27.23;;;;;;;2.58;74.38;101010.59;4956312;28;20484;-65
2022/03/26 06:07:01;;;;;;;52.38;28.98;;;;;;;2.68;74.34;101011.50;4952664;28;20047;-64
2022/03/26 06:09:26;;;;;;;66.07;43.50;;;;;;;2.80;73.80;101015.00;4952976;28;20039;-66
2022/03/26 06:11:52;;;;;;;48.28;28.70;;;;;;;2.90;73.46;101015.03;4951687;28;20039;-66
2022/03/26 06:14:18;;;;;;;48.45;29.30;;;;;;;2.94;73.34;101012.44;4919262;29;20134;-66
2022/03/26 06:16:45;;;;;;;48.90;28.15;;;;;;;2.98;73.24;101015.91;4952398;29;20151;-66
2022/03/26 06:19:11;;;;;;;49.95;26.80;;;;;;;3.02;73.24;101015.03;4952712;29;20031;-66
2022/03/26 06:21:36;;;;;;;41.17;25.92;;;;;;;3.13;73.10;101028.09;4951256;29;20109;-66
2022/03/26 06:24:02;;;;;;;49.13;27.25;;;;;;;3.23;72.87;101028.09;4951255;29;20589;-66
2022/03/26 06:26:28;;;;;;;55.10;28.80;;;;;;;3.36;72.75;101021.16;4951802;29;20035;-65
2022/03/26 06:28:53;;;;;;;49.67;26.45;;;;;;;3.58;72.16;101032.44;4951625;29;20387;-65
2022/03/26 06:31:19;;;;;;;47.60;26.98;;;;;;;3.85;70.98;101030.69;4951029;29;20090;-66
2022/03/26 06:33:44;;;;;;;46.38;27.77;;;;;;;4.04;70.35;101019.34;4951745;29;20401;-66
2022/03/26 06:36:10;;;;;;;42.83;26.73;;;;;;;4.34;69.79;101025.34;4951930;29;20553;-66
2022/03/26 06:38:38;;;;;;;40.30;26.02;;;;;;;4.54;68.77;101025.25;4951017;28;20039;-67
2022/03/26 06:41:22;;;;;;;44.75;24.52;;;;;;;4.80;67.91;101025.13;4933967;28;20387;-65
2022/03/26 06:43:49;;;;;;;44.30;27.85;;;;;;;5.00;67.35;101030.22;4951229;28;20043;-65
2022/03/26 06:46:14;;;;;;;44.63;25.27;;;;;;;5.24;67.22;101028.31;4951112;28;20574;-66
2022/03/26 06:48:40;;;;;;;35.35;24.20;;;;;;;5.49;66.16;101022.03;4934830;29;20122;-66
2022/03/26 06:51:07;;;;;;;38.13;23.60;;;;;;;5.89;64.79;101028.63;4949780;28;20039;-67
2022/03/26 06:53:33;;;;;;;37.85;25.00;;;;;;;6.19;63.75;101036.19;4951560;28;20031;-66
2022/03/26 06:55:59;;;;;;;41.05;25.38;;;;;;;6.47;62.47;101032.38;4950881;28;20035;-66
2022/03/26 06:58:25;;;;;;;38.10;24.60;;;;;;;6.61;62.22;101036.56;4950555;28;20039;-66
2022/03/26 07:00:51;;;;;;;33.88;24.08;;;;;;;6.87;62.15;101038.84;4951080;28;20035;-66
2022/03/26 07:03:16;;;;;;;41.45;24.30;;;;;;;7.20;60.72;101043.63;4950433;28;20043;-65
2022/03/26 07:05:42;;;;;;;44.78;24.88;;;;;;;7.44;59.89;101047.63;4950434;28;20038;-65
2022/03/26 07:08:07;;;;;;;37.40;23.73;;;;;;;7.57;59.50;101043.03;4951341;28;20062;-66
2022/03/26 07:10:34;;;;;;;33.72;21.33;;;;;;;7.89;58.71;101047.72;4950691;28;20069;-67
2022/03/26 07:12:59;;;;;;;37.47;23.27;;;;;;;8.16;57.73;101051.59;4951203;28;20055;-65
2022/03/26 07:15:24;;;;;;;35.88;23.20;;;;;;;8.41;57.00;101053.78;4955416;28;20070;-66
2022/03/26 07:17:50;;;;;;;48.20;25.75;;;;;;;8.77;55.96;101049.56;4955153;28;20027;-66
2022/03/26 07:20:15;;;;;;;38.72;24.25;;;;;;;9.18;55.17;101046.00;4955252;28;20046;-65
2022/03/26 07:22:42;;;;;;;46.65;25.95;;;;;;;9.51;54.01;101053.13;4955966;28;20046;-65
2022/03/26 07:25:08;;;;;;;39.92;25.20;;;;;;;9.83;53.52;101053.16;4956015;28;20043;-66
2022/03/26 07:27:35;;;;;;;34.25;23.77;;;;;;;9.98;52.66;101057.16;4955598;28;20038;-66
2022/03/26 07:30:01;;;;;;;30.25;21.33;;;;;;;10.18;52.57;101056.63;4954509;28;20039;-66
2022/03/26 07:32:27;;;;;;;33.60;22.80;;;;;;;10.65;51.33;101058.88;4954570;28;20038;-67
2022/03/26 07:34:53;;;;;;;35.10;23.90;;;;;;;11.14;50.05;101057.41;4955027;28;20686;-66
2022/03/26 07:37:19;;;;;;;32.42;21.55;;;;;;;11.59;49.08;101059.47;4937604;28;20043;-66
2022/03/26 07:39:44;;;;;;;32.78;24.40;;;;;;;12.00;47.04;101063.41;4954591;28;20068;-65
2022/03/26 07:42:10;;;;;;;34.28;23.88;;;;;;;12.54;45.80;101063.28;4936723;29;20126;-66
2022/03/26 07:44:35;;;;;;;35.33;22.58;;;;;;;13.08;44.28;101056.81;4954677;28;20039;-67
2022/03/26 07:47:01;;;;;;;33.50;22.45;;;;;;;13.73;43.02;101068.31;4954591;28;20039;-65
2022/03/26 07:49:26;;;;;;;30.63;21.48;;;;;;;14.23;43.39;101059.16;4937578;28;20035;-67
2022/03/26 07:51:51;;;;;;;39.15;22.63;;;;;;;14.72;42.34;101063.13;4954055;28;20035;-66
2022/03/26 07:54:17;;;;;;;41.13;27.42;;;;;;;14.99;39.64;101058.34;4954452;28;20046;-67
2022/03/26 07:56:43;;;;;;;35.30;25.83;;;;;;;15.25;39.69;101065.03;4937964;29;20452;-65
2022/03/26 07:59:08;;;;;;;36.67;26.95;;;;;;;15.56;39.47;101057.38;4939258;29;20034;-66
2022/03/26 08:01:34;;;;;;;53.03;26.23;;;;;;;15.78;39.31;101052.75;4934175;29;20110;-67
2022/03/26 08:03:59;;;;;;;42.83;27.95;;;;;;;15.90;37.73;101064.56;4934933;29;20066;-65
2022/03/26 08:06:25;;;;;;;45.25;29.17;;;;;;;16.07;37.24;101063.66;4935241;29;20501;-66
2022/03/26 08:08:50;;;;;;;40.85;27.75;;;;;;;16.39;37.04;101063.78;4935103;29;20455;-67
2022/03/26 08:11:16;;;;;;;49.05;29.30;;;;;;;16.57;37.92;101067.31;4934702;29;20047;-66
2022/03/26 08:13:42;;;;;;;46.88;27.05;;;;;;;17.11;35.73;101059.91;4918491;29;20042;-65
2022/03/26 08:16:08;;;;;;;39.67;24.95;;;;;;;17.63;35.40;101064.94;4935490;29;20039;-66
2022/03/26 08:18:34;;;;;;;47.47;31.48;;;;;;;17.80;34.23;101063.97;4935350;29;20071;-65
2022/03/26 08:20:59;;;;;;;44.20;29.50;;;;;;;17.96;33.66;101063.91;4917410;29;20063;-68
2022/03/26 08:23:25;;;;;;;44.42;28.55;;;;;;;18.24;32.86;101066.66;4935240;29;20082;-66
2022/03/26 08:28:34;;;;;;;41.85;27.52;;;;;;;18.88;31.84;101071.66;4934706;29;20045;-65
2022/03/26 08:30:59;;;;;;;41.00;27.20;;;;;;;19.55;30.97;101070.91;4934394;29;20036;-68
2022/03/26 08:33:24;;;;;;;45.20;32.72;;;;;;;19.77;29.44;101070.38;4948060;28;20031;-66
2022/03/26 08:35:50;;;;;;;44.28;30.10;;;;;;;19.64;29.50;101075.63;4953590;28;20055;-65
2022/03/26 08:38:15;;;;;;;43.10;29.10;;;;;;;19.48;30.41;101076.66;4954166;28;20031;-67
2022/03/26 08:40:40;;;;;;;47.45;29.58;;;;;;;19.77;28.74;101079.25;4954522;28;20035;-66
2022/03/26 08:43:06;;;;;;;37.85;28.98;;;;;;;19.72;29.16;101079.53;4954425;28;20504;-67
2022/03/26 08:45:32;;;;;;;41.67;29.23;;;;;;;19.91;28.83;101081.84;4954231;28;20067;-67
2022/03/26 08:47:57;;;;;;;39.10;27.02;;;;;;;19.73;29.58;101080.41;4953842;28;20035;-66
2022/03/26 08:50:23;;;;;;;40.05;29.77;;;;;;;20.05;28.71;101074.69;4954644;28;20047;-67
2022/03/26 08:52:50;;;;;;;50.78;29.48;;;;;;;20.32;28.34;101079.97;4966612;28;20031;-66
2022/03/26 08:55:16;;;;;;;38.45;26.38;;;;;;;20.54;27.93;101073.97;4966713;28;20404;-66
2022/03/26 08:57:42;;;;;;;39.65;28.60;;;;;;;20.70;27.33;101073.75;4959918;28;20046;-66
2022/03/26 09:00:09;;;;;;;41.95;27.55;;;;;;;21.02;26.63;101066.09;4954931;28;20035;-66
2022/03/26 09:02:35;;;;;;;37.15;25.33;;;;;;;21.34;26.35;101074.47;4953449;28;20045;-67
2022/03/26 09:05:00;;;;;;;44.22;29.13;;;;;;;21.34;25.98;101066.41;4953893;28;20118;-66
2022/03/26 09:07:26;;;;;;;40.47;25.33;;;;;;;21.59;26.17;101064.63;4952875;28;20043;-66
2022/03/26 09:09:52;;;;;;;40.20;28.30;;;;;;;21.93;25.17;101068.28;4953326;28;20041;-66
2022/03/26 09:12:17;;;;;;;46.40;28.63;;;;;;;21.62;25.49;101067.06;4952784;28;20118;-66
2022/03/26 09:14:43;;;;;;;41.10;28.63;;;;;;;21.87;25.64;101068.75;4953875;28;20043;-67
2022/03/26 09:17:09;;;;;;;34.25;25.23;;;;;;;22.20;24.78;101076.09;4953019;28;20452;-66
2022/03/26 09:19:35;;;;;;;42.58;28.92;;;;;;;22.55;24.91;101072.47;4953014;28;20448;-65
2022/03/26 09:22:00;;;;;;;40.58;26.48;;;;;;;22.86;24.25;101070.84;4952380;28;20122;-66
2022/03/26 09:24:26;;;;;;;36.05;30.80;;;;;;;22.56;24.34;101070.63;4953298;28;20042;-66
2022/03/26 09:26:51;;;;;;;47.05;33.60;;;;;;;22.68;23.85;101069.66;4953196;28;20047;-68
2022/03/26 09:29:16;;;;;;;44.83;29.00;;;;;;;22.62;24.02;101064.75;4953979;28;20101;-67
2022/03/26 09:31:42;;;;;;;36.83;27.00;;;;;;;22.60;24.26;101069.41;4953546;28;20035;-66
2022/03/26 09:34:08;;;;;;;38.47;28.92;;;;;;;22.76;23.92;101069.03;4953283;28;20384;-66
2022/03/26 09:36:33;;;;;;;34.47;28.42;;;;;;;23.23;23.81;101065.19;4952288;28;20087;-66
2022/03/26 09:38:58;;;;;;;44.55;31.48;;;;;;;23.41;23.84;101065.53;4952514;28;20396;-66
2022/03/26 09:41:24;;;;;;;33.50;27.70;;;;;;;23.77;23.10;101064.31;4952357;29;20415;-67
2022/03/26 09:43:50;;;;;;;39.35;27.02;;;;;;;24.11;22.88;101068.66;4952678;28;20411;-67
2022/03/26 09:46:15;;;;;;;43.67;29.77;;;;;;;23.97;22.91;101064.44;4952451;29;20495;-65
2022/03/26 09:48:42;;;;;;;42.42;30.05;;;;;;;24.07;22.67;101069.91;4952986;29;20319;-66
2022/03/26 09:51:08;;;;;;;40.25;29.70;;;;;;;23.97;22.63;101072.53;4952036;29;20031;-67
2022/03/26 09:53:34;;;;;;;40.08;29.40;;;;;;;23.99;22.58;101063.34;4952555;29;20200;-67
2022/03/26 09:56:00;;;;;;;36.58;27.63;;;;;;;24.13;22.57;101058.63;4952233;29;20072;-67
2022/03/26 09:58:32;;;;;;;38.80;30.48;;;;;;;24.39;22.23;101064.44;5024924;27;20398;-67
2022/03/26 10:00:57;;;;;;;41.22;28.70;;;;;;;24.63;22.00;101062.31;5027240;28;20041;-67
2022/03/26 10:03:22;;;;;;;39.83;26.48;;;;;;;24.89;21.38;101059.16;5027724;28;20041;-67
2022/03/26 10:05:48;;;;;;;34.72;27.35;;;;;;;24.41;21.65;101057.06;5028290;28;20057;-67
2022/03/26 10:08:22;;;;;;;39.15;27.55;;;;;;;24.68;21.88;101053.81;5027794;28;20075;-67
2022/03/26 10:10:48;;;;;;;40.90;30.70;;;;;;;23.54;22.80;101055.44;5026759;28;20443;-67
2022/03/26 10:13:33;;;;;;;46.17;30.70;;;;;;;23.96;22.65;101057.38;5026390;28;20044;-66
2022/03/26 10:16:17;;;;;;;39.72;30.92;;;;;;;23.78;22.63;101054.41;5026916;28;20033;-68
2022/03/26 10:18:45;;;;;;;34.07;29.63;;;;;;;24.17;22.46;101052.00;5027374;28;20042;-67
2022/03/26 10:21:13;;;;;;;41.75;29.77;;;;;;;24.70;21.97;101056.38;5025934;28;20121;-66
2022/03/26 10:23:43;;;;;;;41.22;31.85;;;;;;;24.74;21.87;101053.28;5026267;28;20033;-67
2022/03/26 10:26:21;;;;;;;39.35;28.25;;;;;;;24.79;21.74;101048.34;5026620;28;20053;-67
2022/03/26 10:28:54;;;;;;;41.30;30.73;;;;;;;24.65;21.87;101059.50;5026442;28;20377;-67
2022/03/26 10:34:14;;;;;;;39.55;30.13;;;;;;;24.22;21.83;101052.44;5023429;28;20119;-66
2022/03/26 10:36:45;;;;;;;41.08;26.65;;;;;;;24.34;21.80;101054.06;5026259;28;20052;-65
2022/03/26 10:39:15;;;;;;;45.03;30.20;;;;;;;24.31;22.22;101051.63;5026617;28;20512;-65
2022/03/26 10:41:41;;;;;;;41.45;28.52;;;;;;;24.03;22.40;101053.16;5026016;28;20130;-66
2022/03/26 10:44:09;;;;;;;38.03;29.50;;;;;;;23.76;22.53;101053.69;5025478;28;20041;-66
2022/03/26 10:46:47;;;;;;;48.97;31.98;;;;;;;23.03;23.35;101056.06;5027042;28;20396;-66
2022/03/26 10:49:23;;;;;;;38.78;28.00;;;;;;;22.38;23.83;101049.59;5026716;28;20052;-66
2022/03/26 10:51:48;;;;;;;37.38;27.45;;;;;;;22.12;24.44;101050.75;5027353;28;20033;-66
2022/03/26 10:54:15;;;;;;;42.65;29.30;;;;;;;21.50;25.42;101057.25;5028986;28;20125;-67
2022/03/26 10:56:41;;;;;;;41.35;30.80;;;;;;;21.27;26.14;101045.53;5029393;28;20088;-65
2022/03/26 10:59:07;;;;;;;39.63;28.98;;;;;;;21.10;25.77;101044.94;5028288;28;20041;-66
2022/03/26 11:01:32;;;;;;;40.88;31.92;;;;;;;20.59;26.53;101053.94;5026991;28;20033;-67
2022/03/26 11:03:58;;;;;;;38.67;28.70;;;;;;;19.78;27.96;101061.38;5027008;28;20026;-66
2022/03/26 11:06:27;;;;;;;44.83;29.40;;;;;;;19.49;28.47;101062.31;5026703;28;20110;-65
2022/03/26 11:08:59;;;;;;;42.05;28.90;;;;;;;19.08;28.75;101049.84;5018488;28;20118;-67
2022/03/26 11:11:27;;;;;;;40.92;29.88;;;;;;;19.02;29.04;101049.38;5014368;28;20394;-65
2022/03/26 11:14:00;;;;;;;47.20;28.58;;;;;;;18.95;28.59;101048.03;5016243;28;20054;-67
2022/03/26 11:16:40;;;;;;;40.63;27.30;;;;;;;18.80;29.06;101065.91;5014443;28;20398;-66